Vira — CSJA — position and weather

sailwx.info

Track history (hours):
 
Tides and Currents Weather Stations Pressure Air Temp Water Temp Dewpoint Dewpoint Depression Visibility Wind Speed Wind Dir Waves Ship Positions

Vira

Last reported at 2017-Sep-01 23:04 UTC. Time now 2017-Sep-20 23:52 UTC.
Position N 38°30' W 009°24'.
Warning: this ship's position is 19 days out of date.

Length 24 m.

Type: Tug. MMSI: 263601840.

Date/timePositionNaut miles runAvg speedWind from/ knotsBaromVisibWave heightAir tempDewpointWater temp
2017-Sep-01 23:04N 38°30' W 009°24'310.3
2017-Sep-01 22:47N 38°32' W 009°27'510.5
2017-Sep-01 22:19N 38°36' W 009°31'310.4
2017-Sep-01 22:00N 38°39' W 009°34'510.5
2017-Sep-01 21:30N 38°43' W 009°37'510.6
2017-Sep-01 21:00N 38°48' W 009°38'510.8
2017-Sep-01 20:30N 38°54' W 009°37'610.9
2017-Sep-01 19:59N 38°59' W 009°35'510.7
2017-Sep-01 19:30N 39°04' W 009°33'  
Track history (hours):
 
Tides and Currents Weather Stations Pressure Air Temp Water Temp Dewpoint Dewpoint Depression Visibility Wind Speed Wind Dir Waves Ship Positions

Vira

Last reported at 2017-Sep-01 23:04 UTC. Time now 2017-Sep-20 23:52 UTC.
Position N 38°30' W 009°24'.
Warning: this ship's position is 19 days out of date.

Length 24 m.

Type: Tug. MMSI: 263601840.

Date/timePositionNaut miles runAvg speedWind from/ knotsBaromVisibWave heightAir tempDewpointWater temp
2017-Sep-01 23:04N 38°30' W 009°24'310.3
2017-Sep-01 22:47N 38°32' W 009°27'510.5
2017-Sep-01 22:19N 38°36' W 009°31'310.4
2017-Sep-01 22:00N 38°39' W 009°34'510.5
2017-Sep-01 21:30N 38°43' W 009°37'510.6
2017-Sep-01 21:00N 38°48' W 009°38'510.8
2017-Sep-01 20:30N 38°54' W 009°37'610.9
2017-Sep-01 19:59N 38°59' W 009°35'510.7
2017-Sep-01 19:30N 39°04' W 009°33'  

Dump ship's entire track history